sensor_id;sensor_type;location;lat;lon;timestamp;temperature;humidity
20558;DHT22;10437;48.156;11.530;2022-09-09T00:00:25;17.30;99.90
20558;DHT22;10437;48.156;11.530;2022-09-09T00:03:02;17.40;99.90
20558;DHT22;10437;48.156;11.530;2022-09-09T00:05:36;17.40;99.90
20558;DHT22;10437;48.156;11.530;2022-09-09T00:10:34;17.90;99.90
20558;DHT22;10437;48.156;11.530;2022-09-09T00:13:13;17.50;99.90
20558;DHT22;10437;48.156;11.530;2022-09-09T00:15:46;17.40;99.90
20558;DHT22;10437;48.156;11.530;2022-09-09T00:18:22;17.40;99.90
20558;DHT22;10437;48.156;11.530;2022-09-09T00:20:56;17.40;99.90
20558;DHT22;10437;48.156;11.530;2022-09-09T00:23:25;17.90;99.90
20558;DHT22;10437;48.156;11.530;2022-09-09T00:26:02;17.50;99.90
20558;DHT22;10437;48.156;11.530;2022-09-09T00:28:33;17.40;99.90
20558;DHT22;10437;48.156;11.530;2022-09-09T00:31:11;17.70;99.90
20558;DHT22;10437;48.156;11.530;2022-09-09T00:33:40;17.50;99.90
20558;DHT22;10437;48.156;11.530;2022-09-09T00:36:13;19.50;99.90
20558;DHT22;10437;48.156;11.530;2022-09-09T00:38:43;17.40;99.90
20558;DHT22;10437;48.156;11.530;2022-09-09T00:41:18;17.40;99.90
20558;DHT22;10437;48.156;11.530;2022-09-09T00:43:55;17.40;99.90
20558;DHT22;10437;48.156;11.530;2022-09-09T00:46:53;17.30;99.90
20558;DHT22;10437;48.156;11.530;2022-09-09T00:49:32;17.40;99.90
20558;DHT22;10437;48.156;11.530;2022-09-09T00:52:12;17.40;99.90
20558;DHT22;10437;48.156;11.530;2022-09-09T00:54:50;17.40;99.90
20558;DHT22;10437;48.156;11.530;2022-09-09T00:57:25;17.40;99.90
20558;DHT22;10437;48.156;11.530;2022-09-09T00:59:58;17.40;99.90
20558;DHT22;10437;48.156;11.530;2022-09-09T01:02:27;17.30;99.90
20558;DHT22;10437;48.156;11.530;2022-09-09T01:05:00;17.30;99.90
20558;DHT22;10437;48.156;11.530;2022-09-09T01:09:56;17.30;99.90
20558;DHT22;10437;48.156;11.530;2022-09-09T01:12:27;17.10;99.90
20558;DHT22;10437;48.156;11.530;2022-09-09T01:15:03;17.10;99.90
20558;DHT22;10437;48.156;11.530;2022-09-09T01:17:44;17.00;99.90
20558;DHT22;10437;48.156;11.530;2022-09-09T01:20:17;17.30;99.90
20558;DHT22;10437;48.156;11.530;2022-09-09T01:22:50;16.80;99.90
20558;DHT22;10437;48.156;11.530;2022-09-09T01:28:16;17.00;99.90
20558;DHT22;10437;48.156;11.530;2022-09-09T01:33:13;17.10;99.90
20558;DHT22;10437;48.156;11.530;2022-09-09T01:35:45;16.90;99.90
20558;DHT22;10437;48.156;11.530;2022-09-09T01:38:14;16.80;99.90
20558;DHT22;10437;48.156;11.530;2022-09-09T01:43:09;17.00;99.90
20558;DHT22;10437;48.156;11.530;2022-09-09T01:45:39;16.80;99.90
20558;DHT22;10437;48.156;11.530;2022-09-09T01:53:03;16.80;99.90
20558;DHT22;10437;48.156;11.530;2022-09-09T01:55:32;16.90;99.90
20558;DHT22;10437;48.156;11.530;2022-09-09T01:58:14;16.60;99.90
20558;DHT22;10437;48.156;11.530;2022-09-09T02:00:53;17.20;99.90
20558;DHT22;10437;48.156;11.530;2022-09-09T02:03:25;17.20;99.90
20558;DHT22;10437;48.156;11.530;2022-09-09T02:06:00;16.70;99.90
20558;DHT22;10437;48.156;11.530;2022-09-09T02:08:38;17.30;99.90
20558;DHT22;10437;48.156;11.530;2022-09-09T02:11:11;16.90;99.90
20558;DHT22;10437;48.156;11.530;2022-09-09T02:13:39;16.80;99.90
20558;DHT22;10437;48.156;11.530;2022-09-09T02:16:12;16.80;99.90
20558;DHT22;10437;48.156;11.530;2022-09-09T02:18:44;17.10;99.90
20558;DHT22;10437;48.156;11.530;2022-09-09T02:21:13;16.90;99.90
20558;DHT22;10437;48.156;11.530;2022-09-09T02:23:41;16.90;99.90
20558;DHT22;10437;48.156;11.530;2022-09-09T02:26:10;16.80;99.90
20558;DHT22;10437;48.156;11.530;2022-09-09T02:28:39;17.10;99.90
20558;DHT22;10437;48.156;11.530;2022-09-09T02:31:09;16.90;99.90
20558;DHT22;10437;48.156;11.530;2022-09-09T02:33:41;16.90;99.90
20558;DHT22;10437;48.156;11.530;2022-09-09T02:36:11;16.90;99.90
20558;DHT22;10437;48.156;11.530;2022-09-09T02:38:42;16.80;99.90
20558;DHT22;10437;48.156;11.530;2022-09-09T02:46:18;16.70;99.90
20558;DHT22;10437;48.156;11.530;2022-09-09T02:48:55;16.80;99.90
20558;DHT22;10437;48.156;11.530;2022-09-09T02:51:32;16.80;99.90
20558;DHT22;10437;48.156;11.530;2022-09-09T02:54:10;16.70;99.90
20558;DHT22;10437;48.156;11.530;2022-09-09T02:56:42;16.80;99.90
20558;DHT22;10437;48.156;11.530;2022-09-09T03:01:39;16.70;99.90
20558;DHT22;10437;48.156;11.530;2022-09-09T03:04:06;16.60;99.90
20558;DHT22;10437;48.156;11.530;2022-09-09T03:11:28;16.20;99.90
20558;DHT22;10437;48.156;11.530;2022-09-09T03:16:23;16.60;99.90
20558;DHT22;10437;48.156;11.530;2022-09-09T03:18:51;16.30;99.90
20558;DHT22;10437;48.156;11.530;2022-09-09T03:26:12;16.60;99.90
20558;DHT22;10437;48.156;11.530;2022-09-09T03:36:05;17.40;99.90
20558;DHT22;10437;48.156;11.530;2022-09-09T03:41:00;16.40;99.90
20558;DHT22;10437;48.156;11.530;2022-09-09T03:43:28;16.40;99.90
20558;DHT22;10437;48.156;11.530;2022-09-09T03:45:55;16.50;99.90
20558;DHT22;10437;48.156;11.530;2022-09-09T03:50:50;16.30;99.90
20558;DHT22;10437;48.156;11.530;2022-09-09T03:53:20;16.50;99.90
20558;DHT22;10437;48.156;11.530;2022-09-09T03:55:49;16.40;99.90
20558;DHT22;10437;48.156;11.530;2022-09-09T03:58:18;16.40;99.90
20558;DHT22;10437;48.156;11.530;2022-09-09T04:00:53;16.40;99.90
20558;DHT22;10437;48.156;11.530;2022-09-09T04:05:49;16.30;99.90
20558;DHT22;10437;48.156;11.530;2022-09-09T04:08:16;15.80;99.90
20558;DHT22;10437;48.156;11.530;2022-09-09T04:10:46;18.00;99.90
20558;DHT22;10437;48.156;11.530;2022-09-09T04:15:42;16.30;99.90
20558;DHT22;10437;48.156;11.530;2022-09-09T04:28:10;16.20;99.90
20558;DHT22;10437;48.156;11.530;2022-09-09T04:30:37;16.30;99.90
20558;DHT22;10437;48.156;11.530;2022-09-09T04:42:57;16.20;99.90
20558;DHT22;10437;48.156;11.530;2022-09-09T04:45:26;16.40;99.90
20558;DHT22;10437;48.156;11.530;2022-09-09T04:47:53;16.30;99.90
20558;DHT22;10437;48.156;11.530;2022-09-09T04:50:20;16.20;99.90
20558;DHT22;10437;48.156;11.530;2022-09-09T04:55:14;16.20;99.90
20558;DHT22;10437;48.156;11.530;2022-09-09T04:57:41;16.30;99.90
20558;DHT22;10437;48.156;11.530;2022-09-09T05:00:09;16.30;99.90
20558;DHT22;10437;48.156;11.530;2022-09-09T05:02:39;16.10;99.90
20558;DHT22;10437;48.156;11.530;2022-09-09T05:07:36;18.60;99.90
20558;DHT22;10437;48.156;11.530;2022-09-09T05:10:04;16.30;99.90
20558;DHT22;10437;48.156;11.530;2022-09-09T05:24:49;16.20;99.90
20558;DHT22;10437;48.156;11.530;2022-09-09T05:27:17;16.20;99.90
20558;DHT22;10437;48.156;11.530;2022-09-09T05:37:09;16.30;99.90
20558;DHT22;10437;48.156;11.530;2022-09-09T05:51:52;16.40;99.90
20558;DHT22;10437;48.156;11.530;2022-09-09T05:54:20;16.40;99.90
20558;DHT22;10437;48.156;11.530;2022-09-09T06:09:08;16.50;99.90
20558;DHT22;10437;48.156;11.530;2022-09-09T06:11:38;16.70;99.90
20558;DHT22;10437;48.156;11.530;2022-09-09T06:14:06;16.50;99.90
20558;DHT22;10437;48.156;11.530;2022-09-09T06:19:00;16.40;99.90
20558;DHT22;10437;48.156;11.530;2022-09-09T06:21:30;16.70;99.90
20558;DHT22;10437;48.156;11.530;2022-09-09T06:26:26;16.80;99.90
20558;DHT22;10437;48.156;11.530;2022-09-09T06:28:55;16.50;99.90
20558;DHT22;10437;48.156;11.530;2022-09-09T06:31:25;16.60;99.90
20558;DHT22;10437;48.156;11.530;2022-09-09T06:36:23;16.50;99.90
20558;DHT22;10437;48.156;11.530;2022-09-09T06:41:18;16.40;99.90
20558;DHT22;10437;48.156;11.530;2022-09-09T06:43:46;16.20;99.90
20558;DHT22;10437;48.156;11.530;2022-09-09T06:46:17;16.70;99.90
20558;DHT22;10437;48.156;11.530;2022-09-09T06:48:44;16.60;99.90
20558;DHT22;10437;48.156;11.530;2022-09-09T06:51:14;16.60;99.90
20558;DHT22;10437;48.156;11.530;2022-09-09T06:53:43;16.70;99.90
20558;DHT22;10437;48.156;11.530;2022-09-09T06:56:19;16.70;99.90
20558;DHT22;10437;48.156;11.530;2022-09-09T06:58:46;16.80;99.90
20558;DHT22;10437;48.156;11.530;2022-09-09T07:01:17;16.90;99.90
20558;DHT22;10437;48.156;11.530;2022-09-09T07:03:46;16.60;99.90
20558;DHT22;10437;48.156;11.530;2022-09-09T07:06:17;16.70;99.90
20558;DHT22;10437;48.156;11.530;2022-09-09T07:08:48;16.80;99.90
20558;DHT22;10437;48.156;11.530;2022-09-09T07:13:43;17.10;99.90
20558;DHT22;10437;48.156;11.530;2022-09-09T07:16:12;16.90;99.90
20558;DHT22;10437;48.156;11.530;2022-09-09T07:18:41;17.00;99.90
20558;DHT22;10437;48.156;11.530;2022-09-09T07:21:10;17.70;99.90
20558;DHT22;10437;48.156;11.530;2022-09-09T07:23:37;16.80;99.90
20558;DHT22;10437;48.156;11.530;2022-09-09T07:26:08;17.00;99.90
20558;DHT22;10437;48.156;11.530;2022-09-09T07:28:35;16.90;99.90
20558;DHT22;10437;48.156;11.530;2022-09-09T07:31:03;17.50;99.90
20558;DHT22;10437;48.156;11.530;2022-09-09T07:33:31;17.00;99.90
20558;DHT22;10437;48.156;11.530;2022-09-09T07:36:05;17.10;99.90
20558;DHT22;10437;48.156;11.530;2022-09-09T07:41:04;17.10;99.90
20558;DHT22;10437;48.156;11.530;2022-09-09T07:48:27;17.40;99.90
20558;DHT22;10437;48.156;11.530;2022-09-09T07:51:08;17.30;99.90
20558;DHT22;10437;48.156;11.530;2022-09-09T07:56:05;17.30;99.90
20558;DHT22;10437;48.156;11.530;2022-09-09T08:06:00;17.60;99.90
20558;DHT22;10437;48.156;11.530;2022-09-09T08:08:29;17.60;99.90
20558;DHT22;10437;48.156;11.530;2022-09-09T08:11:02;17.50;99.90
20558;DHT22;10437;48.156;11.530;2022-09-09T08:13:30;17.20;99.90
20558;DHT22;10437;48.156;11.530;2022-09-09T08:16:04;17.60;99.90
20558;DHT22;10437;48.156;11.530;2022-09-09T08:18:31;17.60;99.90
20558;DHT22;10437;48.156;11.530;2022-09-09T08:23:25;17.60;99.90
20558;DHT22;10437;48.156;11.530;2022-09-09T08:25:54;17.80;99.90
20558;DHT22;10437;48.156;11.530;2022-09-09T08:28:21;17.50;99.90
20558;DHT22;10437;48.156;11.530;2022-09-09T08:35:50;18.00;99.90
20558;DHT22;10437;48.156;11.530;2022-09-09T08:38:17;16.20;99.90
20558;DHT22;10437;48.156;11.530;2022-09-09T08:40:48;18.10;99.90
20558;DHT22;10437;48.156;11.530;2022-09-09T08:43:19;18.10;99.90
20558;DHT22;10437;48.156;11.530;2022-09-09T08:45:50;18.10;99.90
20558;DHT22;10437;48.156;11.530;2022-09-09T08:48:34;17.90;99.90
20558;DHT22;10437;48.156;11.530;2022-09-09T08:51:04;18.00;99.90
20558;DHT22;10437;48.156;11.530;2022-09-09T08:53:37;17.60;99.90
20558;DHT22;10437;48.156;11.530;2022-09-09T08:56:09;18.20;99.90
20558;DHT22;10437;48.156;11.530;2022-09-09T08:58:44;17.90;99.90
20558;DHT22;10437;48.156;11.530;2022-09-09T09:01:28;18.00;99.90
20558;DHT22;10437;48.156;11.530;2022-09-09T09:04:04;20.20;99.90
20558;DHT22;10437;48.156;11.530;2022-09-09T09:06:43;17.90;99.90
20558;DHT22;10437;48.156;11.530;2022-09-09T09:09:19;18.10;99.90
20558;DHT22;10437;48.156;11.530;2022-09-09T09:11:50;17.90;99.90
20558;DHT22;10437;48.156;11.530;2022-09-09T09:14:21;18.00;99.90
20558;DHT22;10437;48.156;11.530;2022-09-09T09:16:52;18.20;99.90
20558;DHT22;10437;48.156;11.530;2022-09-09T09:21:50;18.10;99.90
20558;DHT22;10437;48.156;11.530;2022-09-09T09:24:21;18.20;99.90
20558;DHT22;10437;48.156;11.530;2022-09-09T09:26:50;18.10;99.90
20558;DHT22;10437;48.156;11.530;2022-09-09T09:29:20;18.20;99.90
20558;DHT22;10437;48.156;11.530;2022-09-09T09:31:51;18.60;99.90
20558;DHT22;10437;48.156;11.530;2022-09-09T09:34:20;18.20;99.90
20558;DHT22;10437;48.156;11.530;2022-09-09T09:36:55;17.30;99.90
20558;DHT22;10437;48.156;11.530;2022-09-09T09:39:24;18.30;99.90
20558;DHT22;10437;48.156;11.530;2022-09-09T09:41:52;18.20;99.90
20558;DHT22;10437;48.156;11.530;2022-09-09T09:44:26;18.30;99.90
20558;DHT22;10437;48.156;11.530;2022-09-09T09:47:04;18.30;99.90
20558;DHT22;10437;48.156;11.530;2022-09-09T09:52:00;18.40;99.90
20558;DHT22;10437;48.156;11.530;2022-09-09T09:54:28;18.80;99.90
20558;DHT22;10437;48.156;11.530;2022-09-09T09:56:56;19.20;99.90
20558;DHT22;10437;48.156;11.530;2022-09-09T09:59:36;18.10;99.90
20558;DHT22;10437;48.156;11.530;2022-09-09T10:02:16;18.20;99.90
20558;DHT22;10437;48.156;11.530;2022-09-09T10:07:11;18.10;99.90
20558;DHT22;10437;48.156;11.530;2022-09-09T10:12:15;18.10;99.90
20558;DHT22;10437;48.156;11.530;2022-09-09T10:14:51;18.10;99.90
20558;DHT22;10437;48.156;11.530;2022-09-09T10:17:30;18.20;99.90
20558;DHT22;10437;48.156;11.530;2022-09-09T10:20:20;18.10;99.90
20558;DHT22;10437;48.156;11.530;2022-09-09T10:22:52;18.10;99.90
20558;DHT22;10437;48.156;11.530;2022-09-09T10:28:18;18.00;99.90
20558;DHT22;10437;48.156;11.530;2022-09-09T10:30:59;18.40;99.90
20558;DHT22;10437;48.156;11.530;2022-09-09T10:33:35;18.00;99.90
20558;DHT22;10437;48.156;11.530;2022-09-09T10:36:11;16.90;99.90
20558;DHT22;10437;48.156;11.530;2022-09-09T10:38:40;18.10;99.90
20558;DHT22;10437;48.156;11.530;2022-09-09T10:41:17;18.10;99.90
20558;DHT22;10437;48.156;11.530;2022-09-09T10:43:54;18.20;99.90
20558;DHT22;10437;48.156;11.530;2022-09-09T10:46:30;18.10;99.90
20558;DHT22;10437;48.156;11.530;2022-09-09T10:49:10;18.20;99.90
20558;DHT22;10437;48.156;11.530;2022-09-09T10:51:48;18.20;99.90
20558;DHT22;10437;48.156;11.530;2022-09-09T10:54:28;18.20;99.90
20558;DHT22;10437;48.156;11.530;2022-09-09T10:57:01;18.20;99.90
20558;DHT22;10437;48.156;11.530;2022-09-09T10:59:33;18.20;99.90
20558;DHT22;10437;48.156;11.530;2022-09-09T11:02:12;18.40;99.90
20558;DHT22;10437;48.156;11.530;2022-09-09T11:04:47;18.20;99.90
20558;DHT22;10437;48.156;11.530;2022-09-09T11:07:25;18.50;99.90
20558;DHT22;10437;48.156;11.530;2022-09-09T11:09:58;18.40;99.90
20558;DHT22;10437;48.156;11.530;2022-09-09T11:12:29;18.50;99.90
20558;DHT22;10437;48.156;11.530;2022-09-09T11:15:01;18.90;99.90
20558;DHT22;10437;48.156;11.530;2022-09-09T11:17:35;19.20;99.90
20558;DHT22;10437;48.156;11.530;2022-09-09T11:20:05;19.40;99.90
20558;DHT22;10437;48.156;11.530;2022-09-09T11:22:35;19.50;99.90
20558;DHT22;10437;48.156;11.530;2022-09-09T11:25:06;19.70;99.90
20558;DHT22;10437;48.156;11.530;2022-09-09T11:27:48;19.60;99.90
20558;DHT22;10437;48.156;11.530;2022-09-09T11:30:21;19.70;99.90
20558;DHT22;10437;48.156;11.530;2022-09-09T11:33:18;19.80;99.90
20558;DHT22;10437;48.156;11.530;2022-09-09T11:36:09;19.30;99.90
20558;DHT22;10437;48.156;11.530;2022-09-09T11:38:45;19.50;99.90
20558;DHT22;10437;48.156;11.530;2022-09-09T11:41:13;20.10;99.90
20558;DHT22;10437;48.156;11.530;2022-09-09T11:43:42;20.60;99.90
20558;DHT22;10437;48.156;11.530;2022-09-09T11:46:10;20.30;99.90
20558;DHT22;10437;48.156;11.530;2022-09-09T11:48:42;20.30;99.90
20558;DHT22;10437;48.156;11.530;2022-09-09T11:51:12;20.00;99.90
20558;DHT22;10437;48.156;11.530;2022-09-09T11:53:50;20.00;99.90
20558;DHT22;10437;48.156;11.530;2022-09-09T11:56:26;19.80;99.90
20558;DHT22;10437;48.156;11.530;2022-09-09T11:58:56;19.80;99.90
20558;DHT22;10437;48.156;11.530;2022-09-09T12:01:29;19.60;99.90
20558;DHT22;10437;48.156;11.530;2022-09-09T12:04:17;19.60;99.90
20558;DHT22;10437;48.156;11.530;2022-09-09T12:06:51;19.40;99.90
20558;DHT22;10437;48.156;11.530;2022-09-09T12:09:27;19.30;99.90
20558;DHT22;10437;48.156;11.530;2022-09-09T12:12:05;19.30;99.90
20558;DHT22;10437;48.156;11.530;2022-09-09T12:14:37;19.30;99.90
20558;DHT22;10437;48.156;11.530;2022-09-09T12:17:19;19.10;99.90
20558;DHT22;10437;48.156;11.530;2022-09-09T12:20:00;19.50;99.90
20558;DHT22;10437;48.156;11.530;2022-09-09T12:22:37;19.40;99.90
20558;DHT22;10437;48.156;11.530;2022-09-09T12:25:16;19.40;99.90
20558;DHT22;10437;48.156;11.530;2022-09-09T12:27:47;19.50;99.90
20558;DHT22;10437;48.156;11.530;2022-09-09T12:30:28;19.80;99.90
20558;DHT22;10437;48.156;11.530;2022-09-09T12:33:00;19.60;99.90
20558;DHT22;10437;48.156;11.530;2022-09-09T12:35:30;19.80;99.90
20558;DHT22;10437;48.156;11.530;2022-09-09T12:38:00;19.70;99.90
20558;DHT22;10437;48.156;11.530;2022-09-09T12:40:29;19.40;99.90
20558;DHT22;10437;48.156;11.530;2022-09-09T12:42:58;19.70;99.90
20558;DHT22;10437;48.156;11.530;2022-09-09T12:45:29;19.70;99.90
20558;DHT22;10437;48.156;11.530;2022-09-09T12:47:58;19.90;99.90
20558;DHT22;10437;48.156;11.530;2022-09-09T12:50:31;20.00;99.90
20558;DHT22;10437;48.156;11.530;2022-09-09T12:53:01;19.90;99.90
20558;DHT22;10437;48.156;11.530;2022-09-09T12:55:35;20.00;99.90
20558;DHT22;10437;48.156;11.530;2022-09-09T12:58:03;20.10;99.90
20558;DHT22;10437;48.156;11.530;2022-09-09T13:00:33;20.70;99.90
20558;DHT22;10437;48.156;11.530;2022-09-09T13:03:02;19.70;99.90
20558;DHT22;10437;48.156;11.530;2022-09-09T13:05:37;19.70;99.90
20558;DHT22;10437;48.156;11.530;2022-09-09T13:08:09;19.70;99.90
20558;DHT22;10437;48.156;11.530;2022-09-09T13:10:44;19.50;99.90
20558;DHT22;10437;48.156;11.530;2022-09-09T13:13:14;19.60;99.90
20558;DHT22;10437;48.156;11.530;2022-09-09T13:15:49;19.40;99.90
20558;DHT22;10437;48.156;11.530;2022-09-09T13:18:19;19.30;99.90
20558;DHT22;10437;48.156;11.530;2022-09-09T13:20:48;19.40;99.90
20558;DHT22;10437;48.156;11.530;2022-09-09T13:23:34;19.60;99.90
20558;DHT22;10437;48.156;11.530;2022-09-09T13:26:03;18.00;99.90
20558;DHT22;10437;48.156;11.530;2022-09-09T13:28:31;17.30;99.90
20558;DHT22;10437;48.156;11.530;2022-09-09T13:31:00;19.60;99.90
20558;DHT22;10437;48.156;11.530;2022-09-09T13:33:32;19.60;99.90
20558;DHT22;10437;48.156;11.530;2022-09-09T13:36:02;19.10;99.90
20558;DHT22;10437;48.156;11.530;2022-09-09T13:38:33;19.50;99.90
20558;DHT22;10437;48.156;11.530;2022-09-09T13:41:04;19.70;99.90
20558;DHT22;10437;48.156;11.530;2022-09-09T13:43:34;19.90;99.90
20558;DHT22;10437;48.156;11.530;2022-09-09T13:46:04;19.60;99.90
20558;DHT22;10437;48.156;11.530;2022-09-09T13:48:34;19.60;99.90
20558;DHT22;10437;48.156;11.530;2022-09-09T13:51:04;19.20;99.90
20558;DHT22;10437;48.156;11.530;2022-09-09T13:53:31;19.00;99.90
20558;DHT22;10437;48.156;11.530;2022-09-09T13:55:59;19.00;99.90
20558;DHT22;10437;48.156;11.530;2022-09-09T13:58:29;18.90;99.90
20558;DHT22;10437;48.156;11.530;2022-09-09T14:00:57;19.10;99.90
20558;DHT22;10437;48.156;11.530;2022-09-09T14:08:25;18.90;99.90
20558;DHT22;10437;48.156;11.530;2022-09-09T14:10:53;19.00;99.90
20558;DHT22;10437;48.156;11.530;2022-09-09T14:15:49;18.80;99.90
20558;DHT22;10437;48.156;11.530;2022-09-09T14:20:44;18.70;99.90
20558;DHT22;10437;48.156;11.530;2022-09-09T14:23:11;18.70;99.90
20558;DHT22;10437;48.156;11.530;2022-09-09T14:25:44;18.80;99.90
20558;DHT22;10437;48.156;11.530;2022-09-09T14:28:14;18.80;99.90
20558;DHT22;10437;48.156;11.530;2022-09-09T14:30:43;18.60;99.90
20558;DHT22;10437;48.156;11.530;2022-09-09T14:33:14;18.70;99.90
20558;DHT22;10437;48.156;11.530;2022-09-09T14:38:09;18.60;99.90
20558;DHT22;10437;48.156;11.530;2022-09-09T14:40:37;18.40;99.90
20558;DHT22;10437;48.156;11.530;2022-09-09T14:43:05;18.80;99.90
20558;DHT22;10437;48.156;11.530;2022-09-09T14:57:48;18.50;99.90
20558;DHT22;10437;48.156;11.530;2022-09-09T15:00:16;18.40;99.90
20558;DHT22;10437;48.156;11.530;2022-09-09T15:07:40;18.40;99.90
20558;DHT22;10437;48.156;11.530;2022-09-09T15:12:37;18.40;99.90
20558;DHT22;10437;48.156;11.530;2022-09-09T15:15:05;18.30;99.90
20558;DHT22;10437;48.156;11.530;2022-09-09T15:17:33;18.20;99.90
20558;DHT22;10437;48.156;11.530;2022-09-09T15:27:23;18.30;99.90
20558;DHT22;10437;48.156;11.530;2022-09-09T15:34:46;20.70;99.90
20558;DHT22;10437;48.156;11.530;2022-09-09T15:44:40;18.60;99.90
20558;DHT22;10437;48.156;11.530;2022-09-09T15:52:04;18.90;99.90
20558;DHT22;10437;48.156;11.530;2022-09-09T15:54:32;18.80;99.90
20558;DHT22;10437;48.156;11.530;2022-09-09T15:57:01;18.80;99.90
20558;DHT22;10437;48.156;11.530;2022-09-09T15:59:30;18.60;99.90
20558;DHT22;10437;48.156;11.530;2022-09-09T16:01:58;19.10;99.90
20558;DHT22;10437;48.156;11.530;2022-09-09T16:04:26;18.60;99.90
20558;DHT22;10437;48.156;11.530;2022-09-09T16:06:56;18.40;99.90
20558;DHT22;10437;48.156;11.530;2022-09-09T16:09:26;18.60;99.90
20558;DHT22;10437;48.156;11.530;2022-09-09T16:14:20;18.20;99.90
20558;DHT22;10437;48.156;11.530;2022-09-09T16:21:43;18.40;99.90
20558;DHT22;10437;48.156;11.530;2022-09-09T16:24:12;18.70;99.90
20558;DHT22;10437;48.156;11.530;2022-09-09T16:26:44;19.00;99.90
20558;DHT22;10437;48.156;11.530;2022-09-09T16:29:11;18.50;99.90
20558;DHT22;10437;48.156;11.530;2022-09-09T16:36:35;18.50;99.90
20558;DHT22;10437;48.156;11.530;2022-09-09T16:39:03;18.50;99.90
20558;DHT22;10437;48.156;11.530;2022-09-09T16:44:01;18.60;99.90
20558;DHT22;10437;48.156;11.530;2022-09-09T16:46:30;18.40;99.90
20558;DHT22;10437;48.156;11.530;2022-09-09T16:48:58;18.30;99.90
20558;DHT22;10437;48.156;11.530;2022-09-09T16:51:27;18.60;99.90
20558;DHT22;10437;48.156;11.530;2022-09-09T16:56:24;18.50;99.90
20558;DHT22;10437;48.156;11.530;2022-09-09T17:01:22;19.70;99.90
20558;DHT22;10437;48.156;11.530;2022-09-09T17:03:52;18.20;99.90
20558;DHT22;10437;48.156;11.530;2022-09-09T17:11:15;18.10;99.90
20558;DHT22;10437;48.156;11.530;2022-09-09T17:13:44;17.90;99.90
20558;DHT22;10437;48.156;11.530;2022-09-09T17:16:12;18.00;99.90
20558;DHT22;10437;48.156;11.530;2022-09-09T17:18:40;18.00;99.90
20558;DHT22;10437;48.156;11.530;2022-09-09T17:21:13;17.80;99.90
20558;DHT22;10437;48.156;11.530;2022-09-09T17:23:41;17.50;99.90
20558;DHT22;10437;48.156;11.530;2022-09-09T17:26:10;17.90;99.90
20558;DHT22;10437;48.156;11.530;2022-09-09T17:28:37;17.90;99.90
20558;DHT22;10437;48.156;11.530;2022-09-09T17:31:05;17.70;99.90
20558;DHT22;10437;48.156;11.530;2022-09-09T17:33:33;17.70;99.90
20558;DHT22;10437;48.156;11.530;2022-09-09T17:36:06;17.40;99.90
20558;DHT22;10437;48.156;11.530;2022-09-09T17:38:33;17.70;99.90
20558;DHT22;10437;48.156;11.530;2022-09-09T17:41:01;17.90;99.90
20558;DHT22;10437;48.156;11.530;2022-09-09T17:45:55;17.50;99.90
20558;DHT22;10437;48.156;11.530;2022-09-09T17:50:58;17.60;99.90
20558;DHT22;10437;48.156;11.530;2022-09-09T17:53:27;17.50;99.90
20558;DHT22;10437;48.156;11.530;2022-09-09T18:00:49;17.60;99.90
20558;DHT22;10437;48.156;11.530;2022-09-09T18:03:16;17.30;99.90
20558;DHT22;10437;48.156;11.530;2022-09-09T18:10:39;17.60;99.90
20558;DHT22;10437;48.156;11.530;2022-09-09T18:15:36;17.30;99.90
20558;DHT22;10437;48.156;11.530;2022-09-09T18:18:03;17.40;99.90
20558;DHT22;10437;48.156;11.530;2022-09-09T18:25:25;17.10;99.90
20558;DHT22;10437;48.156;11.530;2022-09-09T18:27:54;17.10;99.90
20558;DHT22;10437;48.156;11.530;2022-09-09T18:32:50;17.20;99.90
20558;DHT22;10437;48.156;11.530;2022-09-09T18:37:45;17.00;99.90
20558;DHT22;10437;48.156;11.530;2022-09-09T18:45:08;17.00;99.90
20558;DHT22;10437;48.156;11.530;2022-09-09T18:59:52;16.80;99.90
20558;DHT22;10437;48.156;11.530;2022-09-09T19:02:21;16.70;99.90
20558;DHT22;10437;48.156;11.530;2022-09-09T19:09:43;16.70;99.90
20558;DHT22;10437;48.156;11.530;2022-09-09T19:19:33;17.00;99.90
20558;DHT22;10437;48.156;11.530;2022-09-09T19:22:01;16.90;99.90
20558;DHT22;10437;48.156;11.530;2022-09-09T19:24:32;16.90;99.90
20558;DHT22;10437;48.156;11.530;2022-09-09T19:27:03;16.80;99.90
20558;DHT22;10437;48.156;11.530;2022-09-09T19:29:33;16.70;99.90
20558;DHT22;10437;48.156;11.530;2022-09-09T19:36:58;16.90;99.90
20558;DHT22;10437;48.156;11.530;2022-09-09T19:39:25;16.70;99.90
20558;DHT22;10437;48.156;11.530;2022-09-09T19:41:52;16.70;99.90
20558;DHT22;10437;48.156;11.530;2022-09-09T19:46:49;16.60;99.90
20558;DHT22;10437;48.156;11.530;2022-09-09T19:54:12;16.50;99.90
20558;DHT22;10437;48.156;11.530;2022-09-09T19:56:41;16.50;99.90
20558;DHT22;10437;48.156;11.530;2022-09-09T19:59:09;16.30;99.90
20558;DHT22;10437;48.156;11.530;2022-09-09T20:01:38;16.40;99.90
20558;DHT22;10437;48.156;11.530;2022-09-09T20:06:35;16.30;99.90
20558;DHT22;10437;48.156;11.530;2022-09-09T20:09:03;16.20;99.90
20558;DHT22;10437;48.156;11.530;2022-09-09T20:11:32;16.30;99.90
20558;DHT22;10437;48.156;11.530;2022-09-09T20:13:59;16.30;99.90
20558;DHT22;10437;48.156;11.530;2022-09-09T20:16:27;16.20;99.90
20558;DHT22;10437;48.156;11.530;2022-09-09T20:18:56;15.90;99.90
20558;DHT22;10437;48.156;11.530;2022-09-09T20:21:25;15.80;99.90
20558;DHT22;10437;48.156;11.530;2022-09-09T20:26:22;15.90;99.90
20558;DHT22;10437;48.156;11.530;2022-09-09T20:28:52;15.80;99.90
20558;DHT22;10437;48.156;11.530;2022-09-09T20:31:21;15.80;99.90
20558;DHT22;10437;48.156;11.530;2022-09-09T20:36:19;15.70;99.90
20558;DHT22;10437;48.156;11.530;2022-09-09T20:38:48;15.70;99.90
20558;DHT22;10437;48.156;11.530;2022-09-09T20:41:16;15.60;99.90
20558;DHT22;10437;48.156;11.530;2022-09-09T20:46:16;15.50;99.90
20558;DHT22;10437;48.156;11.530;2022-09-09T20:51:11;15.50;99.90
20558;DHT22;10437;48.156;11.530;2022-09-09T20:53:39;15.50;99.90
20558;DHT22;10437;48.156;11.530;2022-09-09T20:56:06;15.70;99.90
20558;DHT22;10437;48.156;11.530;2022-09-09T20:58:34;15.60;99.90
20558;DHT22;10437;48.156;11.530;2022-09-09T21:01:02;16.30;99.90
20558;DHT22;10437;48.156;11.530;2022-09-09T21:03:33;15.70;99.90
20558;DHT22;10437;48.156;11.530;2022-09-09T21:06:02;14.90;99.90
20558;DHT22;10437;48.156;11.530;2022-09-09T21:08:30;15.70;99.90
20558;DHT22;10437;48.156;11.530;2022-09-09T21:13:24;15.70;99.90
20558;DHT22;10437;48.156;11.530;2022-09-09T21:15:51;15.80;99.90